LGAL/AXD METAR and TAF weather

Enter ICAO airport designator
Station Type Date Time Source
LGAL METAR 2022/01/23 12:20 UTC NOAA

LGAL 231220Z 01006KT 9999 SCT020 05/M12 Q1020


Station Type Date Time Source
LGAL Decoded METAR 2022/01/23 12:20 UTC NOAA

Alexandroupoli Airport , Greece (LGAL) 40-51N 025-55E 3M
Jan 23, 2022 - 07:20 AM EST / 2022.01.23 1220 UTC
Wind: from the N (010 degrees) at 7 MPH (6 KT):0
Visibility: greater than 7 mile(s):0
Sky conditions: partly cloudy
Temperature: 41 F (5 C)
Dew Point: 10 F (-12 C)
Relative Humidity: 27%
Pressure (altimeter): 30.12 in. Hg (1020 hPa)
ob: LGAL 231220Z 01006KT 9999 SCT020 05/M12 Q1020
cycle: 12

Station Type Date Time Source
LGAL TAF 2012/09/21 03:06 UTC NOAA

TAF TAF LGAL 210200Z 2103/2115 03012G22KT 9999 FEW020 SCT070 PROB30
TEMPO 2103/2106 6000 RA SCT015 BKN030 PROB30

Example: see airport list